createdAt,value
2018-06-14T00:00:59.757Z,2.00
2018-06-14T00:03:28.049Z,1.80
2018-06-14T00:05:56.308Z,1.80
2018-06-14T00:08:24.609Z,2.00
2018-06-14T00:10:52.925Z,4.20
2018-06-14T00:13:21.353Z,2.00
2018-06-14T00:15:49.618Z,4.00
2018-06-14T00:18:17.909Z,2.40
2018-06-14T00:20:46.201Z,3.60
2018-06-14T00:23:14.450Z,3.60
2018-06-14T00:25:42.726Z,4.00
2018-06-14T00:28:11.021Z,2.40
2018-06-14T00:30:39.277Z,4.00
2018-06-14T00:33:07.662Z,4.60
2018-06-14T00:35:36.053Z,2.40
2018-06-14T00:38:04.329Z,4.80
2018-06-14T00:40:32.586Z,1.80
2018-06-14T00:43:00.894Z,3.00
2018-06-14T00:45:29.166Z,4.00
2018-06-14T00:47:57.410Z,3.60
2018-06-14T00:50:25.690Z,3.60
2018-06-14T00:52:54.001Z,4.00
2018-06-14T00:55:22.246Z,4.20
2018-06-14T00:57:50.541Z,1.60
2018-06-14T01:00:18.814Z,3.00
2018-06-14T01:02:47.085Z,4.00
2018-06-14T01:05:15.365Z,3.20
2018-06-14T01:07:43.679Z,4.00
2018-06-14T01:10:11.921Z,6.80
2018-06-14T01:12:40.201Z,3.60
2018-06-14T01:15:08.453Z,2.00
2018-06-14T01:17:36.782Z,4.40
2018-06-14T01:20:05.385Z,2.00
2018-06-14T01:22:33.711Z,4.00
2018-06-14T01:25:01.970Z,4.20
2018-06-14T01:27:30.270Z,4.40
2018-06-14T01:29:58.533Z,4.20
2018-06-14T01:32:26.837Z,4.20
2018-06-14T01:34:55.097Z,4.60
2018-06-14T01:37:34.526Z,4.00
2018-06-14T01:40:02.890Z,1.00
2018-06-14T01:42:31.185Z,3.20
2018-06-14T01:44:59.446Z,2.00
2018-06-14T01:47:27.805Z,2.40
2018-06-14T01:49:56.230Z,2.00
2018-06-14T01:52:24.476Z,4.00
2018-06-14T01:54:52.777Z,3.00
2018-06-14T01:57:21.042Z,4.20
2018-06-14T01:59:49.309Z,6.20
2018-06-14T02:02:17.643Z,4.00
2018-06-14T02:04:45.878Z,2.00
2018-06-14T02:07:14.283Z,2.80
2018-06-14T02:09:42.634Z,4.00
2018-06-14T02:12:10.939Z,4.00
2018-06-14T02:14:39.189Z,4.20
2018-06-14T02:17:07.514Z,2.00
2018-06-14T02:19:35.958Z,4.00
2018-06-14T02:22:04.242Z,2.00
2018-06-14T02:24:32.502Z,4.20
2018-06-14T02:27:00.826Z,3.20
2018-06-14T02:29:29.295Z,2.00
2018-06-14T02:31:57.539Z,4.00
2018-06-14T02:34:25.810Z,3.40
2018-06-14T02:36:54.123Z,4.00
2018-06-14T02:39:22.367Z,4.00
2018-06-14T02:41:50.670Z,3.60
2018-06-14T02:44:18.914Z,4.00
2018-06-14T02:46:47.210Z,1.40
2018-06-14T02:49:15.747Z,2.40
2018-06-14T02:51:44.138Z,4.40
2018-06-14T02:54:12.429Z,4.00
2018-06-14T02:56:40.754Z,4.20
2018-06-14T02:59:09.181Z,3.20
2018-06-14T03:01:37.467Z,4.00
2018-06-14T03:04:05.794Z,3.00
2018-06-14T03:06:34.230Z,2.00
2018-06-14T03:09:02.525Z,4.00
2018-06-14T03:11:30.797Z,4.00
2018-06-14T03:13:59.046Z,4.60
2018-06-14T03:16:27.340Z,4.00
2018-06-14T03:18:56.018Z,3.60
2018-06-14T03:21:24.291Z,5.00
2018-06-14T03:23:52.599Z,4.20
2018-06-14T03:26:20.834Z,4.00
2018-06-14T03:28:49.113Z,3.60
2018-06-14T03:31:17.426Z,2.00
2018-06-14T03:33:45.693Z,4.00
2018-06-14T03:36:13.954Z,4.00
2018-06-14T03:38:42.246Z,4.80
2018-06-14T03:41:10.501Z,3.40
2018-06-14T03:43:38.790Z,5.00
2018-06-14T03:46:07.069Z,4.00
2018-06-14T03:48:35.353Z,4.40
2018-06-14T03:51:03.647Z,2.40
2018-06-14T03:53:31.927Z,2.80
2018-06-14T03:56:00.362Z,4.00
2018-06-14T03:58:28.673Z,5.00
2018-06-14T04:00:57.030Z,4.00
2018-06-14T04:03:25.290Z,3.60
2018-06-14T04:05:53.582Z,3.20
2018-06-14T04:08:21.914Z,4.60
2018-06-14T04:10:50.346Z,4.40
2018-06-14T04:13:18.586Z,4.00
2018-06-14T04:15:46.910Z,5.00
2018-06-14T04:18:15.154Z,4.00
2018-06-14T04:20:43.435Z,4.40
2018-06-14T04:23:11.726Z,4.00
2018-06-14T04:25:39.982Z,4.60
2018-06-14T04:28:08.282Z,4.00
2018-06-14T04:30:36.770Z,4.80
2018-06-14T04:33:05.141Z,4.80
2018-06-14T04:35:33.498Z,7.00
2018-06-14T04:38:01.794Z,4.20
2018-06-14T04:40:30.082Z,7.20
2018-06-14T04:42:58.350Z,6.00
2018-06-14T04:45:26.618Z,3.40
2018-06-14T04:47:54.951Z,4.80
2018-06-14T04:50:23.391Z,5.20
2018-06-14T04:52:52.051Z,5.00
2018-06-14T04:55:20.326Z,5.40
2018-06-14T04:57:48.644Z,5.00
2018-06-14T05:00:16.913Z,5.20
2018-06-14T05:02:57.001Z,6.00
2018-06-14T05:05:32.159Z,4.60
2018-06-14T05:08:07.400Z,6.20
2018-06-14T05:10:38.841Z,8.00
2018-06-14T05:13:07.238Z,6.60
2018-06-14T05:15:35.627Z,6.60
2018-06-14T05:18:03.954Z,6.60
2018-06-14T05:20:32.182Z,6.80
2018-06-14T05:23:01.555Z,5.80
2018-06-14T05:25:31.190Z,7.00
2018-06-14T05:28:00.757Z,5.80
2018-06-14T05:30:29.603Z,7.60
2018-06-14T05:32:59.121Z,7.00
2018-06-14T05:35:28.302Z,5.20
2018-06-14T05:37:58.019Z,7.20
2018-06-14T05:40:27.047Z,6.00
2018-06-14T05:42:56.257Z,5.00
2018-06-14T05:45:24.662Z,6.60
2018-06-14T05:47:53.389Z,7.00
2018-06-14T05:50:21.829Z,9.00
2018-06-14T05:52:50.134Z,6.20
2018-06-14T05:55:18.463Z,7.00
2018-06-14T05:57:46.970Z,7.00
2018-06-14T06:00:17.522Z,7.00
2018-06-14T06:02:47.738Z,7.40
2018-06-14T06:05:16.435Z,5.80
2018-06-14T06:07:44.688Z,6.60
2018-06-14T06:10:12.973Z,8.00
2018-06-14T06:12:41.558Z,8.40
2018-06-14T06:15:10.396Z,7.80
2018-06-14T06:17:38.834Z,9.20
2018-06-14T06:20:11.756Z,8.00
2018-06-14T06:22:40.341Z,8.00
2018-06-14T06:25:08.754Z,8.00
2018-06-14T06:27:37.074Z,7.20
2018-06-14T06:30:05.538Z,5.00
2018-06-14T06:32:33.813Z,7.40
2018-06-14T06:35:02.398Z,7.60
2018-06-14T06:37:30.687Z,9.20
2018-06-14T06:39:59.405Z,7.00
2018-06-14T06:42:28.505Z,9.00
2018-06-14T06:44:56.932Z,8.00
2018-06-14T06:47:25.180Z,7.60
2018-06-14T06:49:53.838Z,8.20
2018-06-14T06:52:22.236Z,7.40
2018-06-14T06:54:50.902Z,6.60
2018-06-14T06:57:19.612Z,5.40
2018-06-14T06:59:47.950Z,7.00
2018-06-14T07:02:16.275Z,5.00
2018-06-14T07:04:44.534Z,5.80
2018-06-14T07:07:12.834Z,8.00
2018-06-14T07:09:41.274Z,9.20
2018-06-14T07:12:09.581Z,6.20
2018-06-14T07:14:37.890Z,4.80
2018-06-14T07:17:06.455Z,11.20
2018-06-14T07:19:34.801Z,7.60
2018-06-14T07:22:03.105Z,10.00
2018-06-14T07:24:31.366Z,7.40
2018-06-14T07:26:59.630Z,6.60
2018-06-14T07:29:27.910Z,6.60
2018-06-14T07:31:56.167Z,5.60
2018-06-14T07:34:24.446Z,8.40
2018-06-14T07:36:52.749Z,7.20
2018-06-14T07:39:21.018Z,8.80
2018-06-14T07:41:49.278Z,7.20
2018-06-14T07:44:17.574Z,7.00
2018-06-14T07:46:45.842Z,7.00
2018-06-14T07:49:14.142Z,8.00
2018-06-14T07:51:42.391Z,7.60
2018-06-14T07:54:10.708Z,6.60
2018-06-14T07:56:38.946Z,7.00
2018-06-14T07:59:07.209Z,7.80
2018-06-14T08:01:35.510Z,10.00
2018-06-14T08:04:03.762Z,7.00
2018-06-14T08:06:32.070Z,6.40
2018-06-14T08:09:00.345Z,7.80
2018-06-14T08:11:28.602Z,5.80
2018-06-14T08:13:56.875Z,4.40
2018-06-14T08:16:25.164Z,10.60
2018-06-14T08:18:53.498Z,7.00
2018-06-14T08:21:21.923Z,4.20
2018-06-14T08:23:50.173Z,7.00
2018-06-14T08:26:18.458Z,7.20
2018-06-14T08:28:46.742Z,7.00
2018-06-14T08:31:15.034Z,4.00
2018-06-14T08:33:43.302Z,8.80
2018-06-14T08:36:11.560Z,7.00
2018-06-14T08:38:39.863Z,5.20
2018-06-14T08:41:08.222Z,6.60
2018-06-14T08:43:36.514Z,5.20
2018-06-14T08:46:04.907Z,7.40
2018-06-14T08:48:33.241Z,3.80
2018-06-14T08:51:01.548Z,5.00
2018-06-14T08:53:29.797Z,4.00
2018-06-14T08:55:58.099Z,6.60
2018-06-14T08:58:26.872Z,4.80
2018-06-14T09:00:55.302Z,5.00
2018-06-14T09:03:23.753Z,5.80
2018-06-14T09:05:52.002Z,5.40
2018-06-14T09:08:20.310Z,5.00
2018-06-14T09:10:48.597Z,6.20
2018-06-14T09:13:16.850Z,7.00
2018-06-14T09:15:45.132Z,5.40
2018-06-14T09:18:13.402Z,5.00
2018-06-14T09:20:41.673Z,4.40
2018-06-14T09:23:09.933Z,5.00
2018-06-14T09:25:38.717Z,7.00
2018-06-14T09:28:07.111Z,5.40
2018-06-14T09:30:35.402Z,5.00
2018-06-14T09:33:03.682Z,5.00
2018-06-14T09:35:31.954Z,5.60
2018-06-14T09:38:00.214Z,5.00
2018-06-14T09:40:28.506Z,4.00
2018-06-14T09:42:56.803Z,4.00
2018-06-14T09:45:25.058Z,5.00
2018-06-14T09:47:53.310Z,5.00
2018-06-14T09:50:21.750Z,3.60
2018-06-14T09:52:50.070Z,5.40
2018-06-14T09:55:18.370Z,5.40
2018-06-14T09:57:46.629Z,3.60
2018-06-14T10:00:14.903Z,4.00
2018-06-14T10:02:43.226Z,7.00
2018-06-14T10:05:11.665Z,3.60
2018-06-14T10:07:39.952Z,5.00
2018-06-14T10:10:08.214Z,4.80
2018-06-14T10:12:37.749Z,5.80
2018-06-14T10:15:06.203Z,1.40
2018-06-14T10:17:34.518Z,5.00
2018-06-14T10:20:02.767Z,4.00
2018-06-14T10:22:31.050Z,5.00
2018-06-14T10:24:59.321Z,4.00
2018-06-14T10:27:27.605Z,5.00
2018-06-14T10:29:55.854Z,2.00
2018-06-14T10:32:24.130Z,4.00
2018-06-14T10:34:52.447Z,4.00
2018-06-14T10:37:20.899Z,5.00
2018-06-14T10:39:49.222Z,5.00
2018-06-14T10:42:17.641Z,4.80
2018-06-14T10:44:45.944Z,6.20
2018-06-14T10:47:14.199Z,3.60
2018-06-14T10:49:42.494Z,4.80
2018-06-14T10:52:10.778Z,5.00
2018-06-14T10:54:39.036Z,6.60
2018-06-14T10:57:07.314Z,5.00
2018-06-14T10:59:35.625Z,4.20
2018-06-14T11:02:03.866Z,4.00
2018-06-14T11:04:32.130Z,3.20
2018-06-14T11:07:00.441Z,5.00
2018-06-14T11:09:28.681Z,4.00
2018-06-14T11:11:56.965Z,6.40
2018-06-14T11:14:25.313Z,4.00
2018-06-14T11:16:53.735Z,4.60
2018-06-14T11:19:22.085Z,7.40
2018-06-14T11:21:50.496Z,4.60
2018-06-14T11:24:18.758Z,6.20
2018-06-14T11:26:47.053Z,4.00
2018-06-14T11:29:15.334Z,7.40
2018-06-14T11:31:43.590Z,6.40
2018-06-14T11:34:11.877Z,7.80
2018-06-14T11:36:40.138Z,7.40
2018-06-14T11:39:09.059Z,7.80
2018-06-14T11:41:37.406Z,8.00
2018-06-14T11:44:05.994Z,10.00
2018-06-14T11:46:34.294Z,10.80
2018-06-14T11:49:02.550Z,8.80
2018-06-14T11:51:30.842Z,7.00
2018-06-14T11:53:59.098Z,8.20
2018-06-14T11:56:27.386Z,8.60
2018-06-14T11:58:55.661Z,9.60
2018-06-14T12:01:23.959Z,8.60
2018-06-14T12:03:52.214Z,8.20
2018-06-14T12:06:20.502Z,8.60
2018-06-14T12:08:48.783Z,8.40
2018-06-14T12:11:17.029Z,9.00
2018-06-14T12:13:45.325Z,8.80
2018-06-14T12:16:13.585Z,9.60
2018-06-14T12:18:41.859Z,9.60
2018-06-14T12:21:10.155Z,7.80
2018-06-14T12:23:38.433Z,8.60
2018-06-14T12:26:06.998Z,11.00
2018-06-14T12:28:35.502Z,8.80
2018-06-14T12:31:03.842Z,5.20
2018-06-14T12:33:32.150Z,9.00
2018-06-14T12:36:00.406Z,8.40
2018-06-14T12:38:28.702Z,8.00
2018-06-14T12:40:56.990Z,10.80
2018-06-14T12:43:25.249Z,10.20
2018-06-14T12:45:53.534Z,9.00
2018-06-14T12:48:21.814Z,7.00
2018-06-14T12:50:50.138Z,11.20
2018-06-14T12:53:18.558Z,8.80
2018-06-14T12:55:46.845Z,8.00
2018-06-14T12:58:15.097Z,11.00
2018-06-14T13:00:43.406Z,8.00
2018-06-14T13:03:11.646Z,8.00
2018-06-14T13:05:39.942Z,8.60
2018-06-14T13:08:08.227Z,10.60
2018-06-14T13:10:36.499Z,8.00
2018-06-14T13:13:04.780Z,11.00
2018-06-14T13:15:33.083Z,7.60
2018-06-14T13:18:01.618Z,9.20
2018-06-14T13:20:30.038Z,10.80
2018-06-14T13:22:58.399Z,9.80
2018-06-14T13:25:26.788Z,8.40
2018-06-14T13:27:55.081Z,11.40
2018-06-14T13:30:23.593Z,7.80
2018-06-14T13:32:52.514Z,10.60
2018-06-14T13:35:20.906Z,9.40
2018-06-14T13:37:49.190Z,12.00
2018-06-14T13:40:17.534Z,8.00
2018-06-14T13:42:48.969Z,9.80
2018-06-14T13:45:17.324Z,8.00
2018-06-14T13:47:45.754Z,9.40
2018-06-14T13:50:14.059Z,9.60
2018-06-14T13:52:42.342Z,9.00
2018-06-14T13:55:10.582Z,8.80
2018-06-14T13:57:38.879Z,10.20
2018-06-14T14:00:07.130Z,9.20
2018-06-14T14:02:35.434Z,13.80
2018-06-14T14:05:03.730Z,9.80
2018-06-14T14:07:32.158Z,11.00
2018-06-14T14:10:00.667Z,11.00
2018-06-14T14:12:29.042Z,8.40
2018-06-14T14:14:57.614Z,10.80
2018-06-14T14:17:26.117Z,10.80
2018-06-14T14:19:54.363Z,7.60
2018-06-14T14:22:22.669Z,9.00
2018-06-14T14:24:50.938Z,10.20
2018-06-14T14:27:19.190Z,9.60
2018-06-14T14:29:47.513Z,11.00
2018-06-14T14:32:15.950Z,9.40
2018-06-14T14:34:44.250Z,4.60
2018-06-14T14:37:12.528Z,9.20
2018-06-14T14:39:40.816Z,10.20
2018-06-14T14:42:09.078Z,11.00
2018-06-14T14:44:37.338Z,8.60
2018-06-14T14:47:05.654Z,10.80
2018-06-14T14:49:34.094Z,12.00
2018-06-14T14:52:02.366Z,11.40
2018-06-14T14:54:30.686Z,9.20
2018-06-14T14:56:58.938Z,8.20
2018-06-14T14:59:27.197Z,8.00
2018-06-14T15:01:55.534Z,11.00
2018-06-14T15:04:23.958Z,10.40
2018-06-14T15:06:52.294Z,9.20
2018-06-14T15:09:20.741Z,10.60
2018-06-14T15:11:48.987Z,10.60
2018-06-14T15:14:17.333Z,9.00
2018-06-14T15:16:45.749Z,10.60
2018-06-14T15:19:15.054Z,10.40
2018-06-14T15:21:43.341Z,7.60
2018-06-14T15:24:11.606Z,9.00
2018-06-14T15:26:39.897Z,11.20
2018-06-14T15:29:08.158Z,11.20
2018-06-14T15:31:36.446Z,8.60
2018-06-14T15:34:04.746Z,11.00
2018-06-14T15:36:33.186Z,9.20
2018-06-14T15:39:01.473Z,8.20
2018-06-14T15:41:29.783Z,8.80
2018-06-14T15:43:58.132Z,10.40
2018-06-14T15:46:27.540Z,7.60
2018-06-14T15:48:56.012Z,8.80
2018-06-14T15:51:24.365Z,9.20
2018-06-14T15:53:52.773Z,10.00
2018-06-14T15:56:39.599Z,10.20
2018-06-14T15:59:09.178Z,8.00
2018-06-14T16:01:37.574Z,7.60
2018-06-14T16:04:06.570Z,8.40
2018-06-14T16:06:34.866Z,8.80
2018-06-14T16:09:03.197Z,8.60
2018-06-14T16:11:31.581Z,7.40
2018-06-14T16:13:59.906Z,8.40
2018-06-14T16:16:28.361Z,8.00
2018-06-14T16:18:56.602Z,7.20
2018-06-14T16:21:24.981Z,5.00
2018-06-14T16:23:53.378Z,8.20
2018-06-14T16:26:21.676Z,10.00
2018-06-14T16:28:49.956Z,8.60
2018-06-14T16:31:18.258Z,8.80
2018-06-14T16:33:46.682Z,8.20
2018-06-14T16:36:15.662Z,7.40
2018-06-14T16:38:44.326Z,8.40
2018-06-14T16:41:12.819Z,7.80
2018-06-14T16:43:41.258Z,8.60
2018-06-14T16:46:09.541Z,7.20
2018-06-14T16:48:37.779Z,9.60
2018-06-14T16:52:09.030Z,7.40
2018-06-14T16:54:37.306Z,11.00
2018-06-14T16:57:05.626Z,8.60
2018-06-14T16:59:34.710Z,8.20
2018-06-14T17:02:03.167Z,8.40
2018-06-14T17:04:31.570Z,8.00
2018-06-14T17:07:00.071Z,7.80
2018-06-14T17:09:28.634Z,8.40
2018-06-14T17:11:57.566Z,7.80
2018-06-14T17:14:26.383Z,8.20
2018-06-14T17:16:55.003Z,8.20
2018-06-14T17:19:23.398Z,10.80
2018-06-14T17:21:51.850Z,9.00
2018-06-14T17:24:20.114Z,8.20
2018-06-14T17:26:48.395Z,8.80
2018-06-14T17:29:16.674Z,7.60
2018-06-14T17:31:45.001Z,7.60
2018-06-14T17:34:13.411Z,9.40
2018-06-14T17:36:41.722Z,7.00
2018-06-14T17:39:10.233Z,9.00
2018-06-14T17:41:38.778Z,7.20
2018-06-14T17:44:06.957Z,8.40
2018-06-14T17:46:35.203Z,7.80
2018-06-14T17:49:03.502Z,8.00
2018-06-14T17:51:31.818Z,7.00
2018-06-14T17:54:00.254Z,8.00
2018-06-14T17:56:28.738Z,7.80
2018-06-14T17:58:56.997Z,6.60
2018-06-14T18:01:25.494Z,7.60
2018-06-14T18:03:53.752Z,9.00
2018-06-14T18:06:22.075Z,5.80
2018-06-14T18:08:50.309Z,8.80
2018-06-14T18:11:18.674Z,7.40
2018-06-14T18:13:47.054Z,9.80
2018-06-14T18:16:15.342Z,7.60
2018-06-14T18:18:43.638Z,6.40
2018-06-14T18:21:11.894Z,7.40
2018-06-14T18:23:40.197Z,7.40
2018-06-14T18:26:08.453Z,8.00
2018-06-14T18:28:36.733Z,6.40
2018-06-14T18:31:05.051Z,7.80
2018-06-14T18:33:33.494Z,9.20
2018-06-14T18:36:01.765Z,7.60
2018-06-14T18:38:30.054Z,7.60
2018-06-14T18:40:58.323Z,4.40
2018-06-14T18:43:26.594Z,7.40
2018-06-14T18:45:54.858Z,7.40
2018-06-14T18:48:23.138Z,8.00
2018-06-14T18:50:51.451Z,7.20
2018-06-14T18:53:19.890Z,5.20
2018-06-14T18:55:48.179Z,5.60
2018-06-14T18:58:16.458Z,7.40
2018-06-14T19:00:44.764Z,6.40
2018-06-14T19:03:13.038Z,7.20
2018-06-14T19:05:41.282Z,7.40
2018-06-14T19:08:09.574Z,8.40
2018-06-14T19:10:37.834Z,7.80
2018-06-14T19:13:06.134Z,8.40
2018-06-14T19:15:34.397Z,8.60
2018-06-14T19:18:02.678Z,5.60
2018-06-14T19:20:30.942Z,8.00
2018-06-14T19:22:59.341Z,7.80
2018-06-14T19:25:27.747Z,7.00
2018-06-14T19:27:56.200Z,7.00
2018-06-14T19:30:24.456Z,8.00
2018-06-14T19:32:52.750Z,7.00
2018-06-14T19:35:21.012Z,6.00
2018-06-14T19:37:49.351Z,5.60
2018-06-14T19:40:17.764Z,8.20
2018-06-14T19:42:46.063Z,6.00
2018-06-14T19:45:14.337Z,9.60
2018-06-14T19:47:42.593Z,7.80
2018-06-14T19:50:10.889Z,7.20
2018-06-14T19:52:39.161Z,9.00
2018-06-14T19:55:07.477Z,7.00
2018-06-14T19:57:35.906Z,7.00
2018-06-14T20:00:04.228Z,6.00
2018-06-14T20:02:32.743Z,10.00
2018-06-14T20:05:01.226Z,10.20
2018-06-14T20:08:32.621Z,8.80
2018-06-14T20:11:00.995Z,10.00
2018-06-14T20:13:29.262Z,5.00
2018-06-14T20:15:57.574Z,11.80
2018-06-14T20:18:26.014Z,8.00
2018-06-14T20:20:54.371Z,7.60
2018-06-14T20:23:23.258Z,8.40
2018-06-14T20:25:51.667Z,7.60
2018-06-14T20:28:20.258Z,8.00
2018-06-14T20:30:48.630Z,8.20
2018-06-14T20:33:16.894Z,6.00
2018-06-14T20:35:45.242Z,7.00
2018-06-14T20:38:13.679Z,5.00
2018-06-14T20:40:42.142Z,8.00
2018-06-14T20:43:10.429Z,7.60
2018-06-14T20:45:38.732Z,8.00
2018-06-14T20:48:06.974Z,7.00
2018-06-14T20:50:35.335Z,8.40
2018-06-14T20:53:03.738Z,5.00
2018-06-14T20:55:32.022Z,7.60
2018-06-14T20:58:00.337Z,7.00
2018-06-14T21:00:29.215Z,8.00
2018-06-14T21:02:57.665Z,7.60
2018-06-14T21:05:25.991Z,5.20
2018-06-14T21:07:54.415Z,5.60
2018-06-14T21:10:22.674Z,8.00
2018-06-14T21:12:50.986Z,7.20
2018-06-14T21:15:19.383Z,6.40
2018-06-14T21:17:47.715Z,6.20
2018-06-14T21:20:17.053Z,5.60
2018-06-14T21:22:45.500Z,6.20
2018-06-14T21:25:14.137Z,5.80
2018-06-14T21:27:42.625Z,7.60
2018-06-14T21:30:11.226Z,5.00
2018-06-14T21:32:40.717Z,4.60
2018-06-14T21:35:09.291Z,5.00
2018-06-14T21:37:38.371Z,4.60
2018-06-14T21:40:06.832Z,6.60
2018-06-14T21:42:35.322Z,6.60
2018-06-14T21:45:03.879Z,5.40
2018-06-14T21:47:32.394Z,7.60
2018-06-14T21:50:00.778Z,6.60
2018-06-14T21:52:29.229Z,5.20
2018-06-14T21:54:57.700Z,7.60
2018-06-14T21:57:26.250Z,7.40
2018-06-14T21:59:54.780Z,6.60
2018-06-14T22:02:23.273Z,5.20
2018-06-14T22:04:51.772Z,4.40
2018-06-14T22:07:20.258Z,8.00
2018-06-14T22:09:48.609Z,2.40
2018-06-14T22:12:17.026Z,6.20
2018-06-14T22:14:45.362Z,6.40
2018-06-14T22:17:13.714Z,6.20
2018-06-14T22:19:42.117Z,5.40
2018-06-14T22:22:10.397Z,5.80
2018-06-14T22:24:38.759Z,7.20
2018-06-14T22:27:07.256Z,5.00
2018-06-14T22:29:35.756Z,4.80
2018-06-14T22:32:04.230Z,5.20
2018-06-14T22:34:43.834Z,4.00
2018-06-14T22:37:12.101Z,5.00
2018-06-14T22:39:40.501Z,5.00
2018-06-14T22:42:09.054Z,6.00
2018-06-14T22:44:37.499Z,5.40
2018-06-14T22:47:06.449Z,5.20
2018-06-14T22:49:34.877Z,5.20
2018-06-14T22:52:14.100Z,4.00
2018-06-14T22:54:42.454Z,7.00
2018-06-14T22:57:10.928Z,5.20
2018-06-14T22:59:39.382Z,8.00
2018-06-14T23:02:07.907Z,6.00
2018-06-14T23:04:36.298Z,6.80
2018-06-14T23:07:04.555Z,6.00
2018-06-14T23:10:42.254Z,6.00
2018-06-14T23:13:12.857Z,5.20
2018-06-14T23:15:41.258Z,5.00
2018-06-14T23:18:09.553Z,7.80
2018-06-14T23:20:38.018Z,6.00
2018-06-14T23:23:06.806Z,5.40
2018-06-14T23:25:35.613Z,6.00
2018-06-14T23:28:03.894Z,6.00
2018-06-14T23:30:32.146Z,6.40
2018-06-14T23:33:00.422Z,4.20
2018-06-14T23:35:28.744Z,6.80
2018-06-14T23:37:57.190Z,5.20
2018-06-14T23:40:25.685Z,8.20
2018-06-14T23:42:53.954Z,7.20
2018-06-14T23:45:22.161Z,8.20
2018-06-14T23:47:50.436Z,11.40
2018-06-14T23:50:18.677Z,7.20
2018-06-14T23:52:46.985Z,8.00
2018-06-14T23:55:15.257Z,9.00
2018-06-14T23:57:43.517Z,5.80
